createdAt,value
2017-12-16T00:02:19.003Z,100.00
2017-12-16T00:04:48.877Z,100.00
2017-12-16T00:07:18.778Z,100.00
2017-12-16T00:09:48.735Z,100.00
2017-12-16T00:12:18.095Z,100.00
2017-12-16T00:14:48.443Z,100.00
2017-12-16T00:17:18.428Z,100.00
2017-12-16T00:19:48.858Z,100.00
2017-12-16T00:22:19.437Z,100.00
2017-12-16T00:24:51.448Z,100.00
2017-12-16T00:27:21.377Z,100.00
2017-12-16T00:29:51.309Z,100.00
2017-12-16T00:32:21.256Z,100.00
2017-12-16T00:34:50.866Z,100.00
2017-12-16T00:37:20.830Z,100.00
2017-12-16T00:39:50.731Z,100.00
2017-12-16T00:42:20.510Z,100.00
2017-12-16T00:44:50.598Z,100.00
2017-12-16T00:47:20.559Z,100.00
2017-12-16T00:49:51.269Z,100.00
2017-12-16T00:52:20.957Z,100.00
2017-12-16T00:54:50.892Z,100.00
2017-12-16T00:57:25.113Z,100.00
2017-12-16T00:59:55.064Z,100.00
2017-12-16T01:02:25.002Z,100.00
2017-12-16T01:04:54.958Z,100.00
2017-12-16T01:07:24.863Z,100.00
2017-12-16T01:09:55.042Z,100.00
2017-12-16T01:12:24.973Z,100.00
2017-12-16T01:14:54.723Z,100.00
2017-12-16T01:17:24.671Z,100.00
2017-12-16T01:19:54.675Z,100.00
2017-12-16T01:22:24.614Z,100.00
2017-12-16T01:24:54.510Z,100.00
2017-12-16T01:27:24.443Z,100.00
2017-12-16T01:29:54.399Z,100.00
2017-12-16T01:32:24.323Z,100.00
2017-12-16T01:38:16.414Z,100.00
2017-12-16T01:40:45.985Z,100.00
2017-12-16T01:43:15.652Z,100.00
2017-12-16T01:45:45.529Z,100.00
2017-12-16T01:48:15.418Z,100.00
2017-12-16T01:50:45.492Z,100.00
2017-12-16T01:53:15.063Z,100.00
2017-12-16T01:55:44.617Z,100.00
2017-12-16T01:58:14.256Z,100.00
2017-12-16T02:00:44.036Z,100.00
2017-12-16T02:03:13.400Z,100.00
2017-12-16T02:05:42.727Z,100.00
2017-12-16T02:08:12.102Z,100.00
2017-12-16T02:10:41.382Z,100.00
2017-12-16T02:13:11.235Z,100.00
2017-12-16T02:15:41.239Z,100.00
2017-12-16T02:18:10.563Z,100.00
2017-12-16T02:20:40.193Z,100.00
2017-12-16T02:23:10.169Z,100.00
2017-12-16T02:25:39.458Z,100.00
2017-12-16T02:28:09.108Z,100.00
2017-12-16T02:30:38.748Z,100.00
2017-12-16T02:33:08.464Z,100.00
2017-12-16T02:35:38.175Z,100.00
2017-12-16T02:40:58.533Z,100.00
2017-12-16T02:46:01.721Z,100.00
2017-12-16T02:48:31.403Z,100.00
2017-12-16T02:51:01.014Z,100.00
2017-12-16T02:53:33.859Z,100.00
2017-12-16T02:56:03.217Z,100.00
2017-12-16T02:58:32.790Z,100.00
2017-12-16T03:01:02.161Z,100.00
2017-12-16T03:03:31.922Z,100.00
2017-12-16T03:06:01.489Z,100.00
2017-12-16T03:08:30.815Z,100.00
2017-12-16T03:11:00.315Z,100.00
2017-12-16T03:13:29.852Z,100.00
2017-12-16T03:15:59.513Z,100.00
2017-12-16T03:18:28.852Z,100.00
2017-12-16T03:21:02.117Z,100.00
2017-12-16T03:23:31.472Z,100.00
2017-12-16T03:26:00.991Z,100.00
2017-12-16T03:28:30.646Z,100.00
2017-12-16T03:31:00.309Z,100.00
2017-12-16T03:33:29.677Z,100.00
2017-12-16T03:35:59.354Z,100.00
2017-12-16T03:38:28.447Z,100.00
2017-12-16T03:40:57.848Z,100.00
2017-12-16T03:43:27.393Z,100.00
2017-12-16T03:45:56.954Z,100.00
2017-12-16T03:48:26.276Z,100.00
2017-12-16T03:50:55.614Z,100.00
2017-12-16T03:53:25.267Z,100.00
2017-12-16T03:55:54.870Z,100.00
2017-12-16T03:58:24.482Z,100.00
2017-12-16T04:00:55.035Z,100.00
2017-12-16T04:03:24.925Z,100.00
2017-12-16T04:05:54.576Z,100.00
2017-12-16T04:08:24.591Z,100.00
2017-12-16T04:10:54.034Z,100.00
2017-12-16T04:13:24.039Z,100.00
2017-12-16T04:15:53.691Z,100.00
2017-12-16T04:18:23.714Z,100.00
2017-12-16T04:20:55.527Z,100.00
2017-12-16T04:23:25.277Z,100.00
2017-12-16T04:25:59.547Z,100.00
2017-12-16T04:28:29.816Z,100.00
2017-12-16T04:30:59.622Z,100.00
2017-12-16T04:33:29.577Z,100.00
2017-12-16T04:35:59.125Z,100.00
2017-12-16T04:38:29.165Z,100.00
2017-12-16T04:40:58.741Z,100.00
2017-12-16T04:43:28.288Z,100.00
2017-12-16T04:45:57.915Z,100.00
2017-12-16T04:48:27.551Z,100.00
2017-12-16T04:50:57.131Z,100.00
2017-12-16T04:53:27.072Z,100.00
2017-12-16T04:55:56.634Z,100.00
2017-12-16T04:58:26.317Z,100.00
2017-12-16T05:00:57.854Z,100.00
2017-12-16T05:03:28.182Z,100.00
2017-12-16T05:05:58.778Z,100.00
2017-12-16T05:08:28.316Z,100.00
2017-12-16T05:10:58.376Z,100.00
2017-12-16T05:13:28.002Z,100.00
2017-12-16T05:15:57.569Z,100.00
2017-12-16T05:18:27.484Z,100.00
2017-12-16T05:20:57.186Z,100.00
2017-12-16T05:23:26.830Z,100.00
2017-12-16T05:25:56.454Z,100.00
2017-12-16T05:28:26.682Z,100.00
2017-12-16T05:30:56.270Z,100.00
2017-12-16T05:33:25.871Z,100.00
2017-12-16T05:35:56.265Z,100.00
2017-12-16T05:38:26.465Z,100.00
2017-12-16T05:40:56.024Z,100.00
2017-12-16T05:43:25.702Z,100.00
2017-12-16T05:45:55.828Z,100.00
2017-12-16T05:48:25.455Z,100.00
2017-12-16T05:50:54.761Z,100.00
2017-12-16T05:53:28.471Z,100.00
2017-12-16T05:55:58.192Z,100.00
2017-12-16T05:58:27.776Z,100.00
2017-12-16T06:00:58.378Z,100.00
2017-12-16T06:03:28.173Z,100.00
2017-12-16T06:05:57.804Z,100.00
2017-12-16T06:08:27.777Z,100.00
2017-12-16T06:10:57.540Z,100.00
2017-12-16T06:13:27.698Z,100.00
2017-12-16T06:15:57.295Z,100.00
2017-12-16T06:18:28.555Z,100.00
2017-12-16T06:20:58.695Z,100.00
2017-12-16T06:23:28.725Z,100.00
2017-12-16T06:25:58.345Z,100.00
2017-12-16T06:28:29.126Z,100.00
2017-12-16T06:30:58.974Z,100.00
2017-12-16T06:33:29.401Z,100.00
2017-12-16T06:36:09.969Z,100.00
2017-12-16T06:38:40.590Z,100.00
2017-12-16T06:41:10.557Z,100.00
2017-12-16T06:43:39.980Z,100.00
2017-12-16T06:46:09.742Z,100.00
2017-12-16T06:48:40.174Z,100.00
2017-12-16T06:51:10.406Z,100.00
2017-12-16T06:53:42.893Z,100.00
2017-12-16T06:56:13.601Z,100.00
2017-12-16T06:58:43.147Z,100.00
2017-12-16T07:01:12.682Z,100.00
2017-12-16T07:03:42.495Z,100.00
2017-12-16T07:06:12.176Z,100.00
2017-12-16T07:08:42.476Z,100.00
2017-12-16T07:11:14.118Z,100.00
2017-12-16T07:13:43.651Z,100.00
2017-12-16T07:16:13.942Z,100.00
2017-12-16T07:18:44.093Z,100.00
2017-12-16T07:21:15.161Z,100.00
2017-12-16T07:23:49.619Z,100.00
2017-12-16T07:26:19.295Z,100.00
2017-12-16T07:28:49.286Z,100.00
2017-12-16T07:31:32.651Z,100.00
2017-12-16T07:34:02.535Z,100.00
2017-12-16T07:36:32.054Z,100.00
2017-12-16T07:39:01.889Z,100.00
2017-12-16T07:41:31.745Z,100.00
2017-12-16T07:44:01.342Z,100.00
2017-12-16T07:46:31.194Z,100.00
2017-12-16T07:49:01.092Z,100.00
2017-12-16T07:51:31.898Z,99.82
2017-12-16T07:54:03.157Z,99.69
2017-12-16T07:56:33.045Z,99.29
2017-12-16T07:59:03.256Z,98.63
2017-12-16T08:01:33.798Z,98.60
2017-12-16T08:04:05.656Z,98.35
2017-12-16T08:06:35.271Z,97.20
2017-12-16T08:09:07.387Z,96.93
2017-12-16T08:11:38.864Z,96.60
2017-12-16T08:14:10.475Z,95.09
2017-12-16T08:16:40.811Z,94.97
2017-12-16T08:19:13.156Z,93.60
2017-12-16T08:21:46.111Z,92.92
2017-12-16T08:24:16.561Z,93.17
2017-12-16T08:26:46.227Z,93.74
2017-12-16T08:29:16.058Z,93.57
2017-12-16T08:34:24.486Z,91.59
2017-12-16T08:36:54.673Z,89.32
2017-12-16T08:39:24.534Z,88.85
2017-12-16T08:41:54.385Z,87.77
2017-12-16T08:44:24.171Z,87.70
2017-12-16T08:46:54.060Z,85.01
2017-12-16T08:49:23.823Z,84.19
2017-12-16T08:51:53.639Z,83.85
2017-12-16T08:54:23.483Z,80.34
2017-12-16T08:56:53.361Z,78.96
2017-12-16T08:59:23.186Z,77.78
2017-12-16T09:01:53.064Z,76.62
2017-12-16T09:04:24.866Z,76.91
2017-12-16T09:06:54.746Z,75.58
2017-12-16T09:09:24.426Z,75.25
2017-12-16T09:11:54.320Z,74.09
2017-12-16T09:14:24.263Z,71.24
2017-12-16T09:22:03.295Z,68.48
2017-12-16T09:24:33.194Z,68.62
2017-12-16T09:27:04.152Z,68.35
2017-12-16T09:29:34.094Z,68.94
2017-12-16T09:32:03.941Z,69.59
2017-12-16T09:34:33.842Z,71.48
2017-12-16T09:37:04.727Z,73.45
2017-12-16T09:39:34.869Z,74.38
2017-12-16T09:42:04.896Z,74.77
2017-12-16T09:44:34.739Z,74.47
2017-12-16T09:47:04.659Z,73.47
2017-12-16T09:49:34.725Z,73.51
2017-12-16T09:52:04.620Z,73.35
2017-12-16T09:54:34.797Z,71.77
2017-12-16T09:57:04.604Z,70.93
2017-12-16T09:59:34.970Z,70.65
2017-12-16T10:02:05.056Z,71.03
2017-12-16T10:04:34.961Z,71.67
2017-12-16T10:07:04.815Z,70.82
2017-12-16T10:09:34.736Z,70.49
2017-12-16T10:12:05.185Z,69.03
2017-12-16T10:14:35.119Z,68.61
2017-12-16T10:17:05.308Z,69.07
2017-12-16T10:19:36.210Z,68.06
2017-12-16T10:22:06.301Z,67.81
2017-12-16T10:24:36.160Z,67.70
2017-12-16T10:27:06.026Z,68.25
2017-12-16T10:29:35.840Z,67.54
2017-12-16T10:32:06.403Z,67.46
2017-12-16T10:34:36.297Z,68.73
2017-12-16T10:37:06.990Z,71.58
2017-12-16T10:39:36.900Z,73.36
2017-12-16T10:42:06.768Z,73.30
2017-12-16T10:44:36.682Z,73.30
2017-12-16T10:47:07.738Z,72.84
2017-12-16T10:49:38.305Z,71.90
2017-12-16T10:52:08.000Z,70.25
2017-12-16T10:54:38.585Z,67.55
2017-12-16T10:57:08.406Z,61.69
2017-12-16T10:59:38.093Z,59.91
2017-12-16T11:02:07.993Z,61.59
2017-12-16T11:04:37.893Z,63.35
2017-12-16T11:07:07.501Z,65.82
2017-12-16T11:09:37.767Z,66.38
2017-12-16T11:12:08.112Z,67.70
2017-12-16T11:14:38.007Z,67.26
2017-12-16T11:17:07.843Z,66.29
2017-12-16T11:19:37.729Z,66.06
2017-12-16T11:22:07.630Z,65.82
2017-12-16T11:24:38.112Z,64.32
2017-12-16T11:27:07.984Z,64.75
2017-12-16T11:29:38.073Z,64.23
2017-12-16T11:32:07.688Z,65.68
2017-12-16T11:34:37.702Z,65.16
2017-12-16T11:37:08.012Z,66.78
2017-12-16T11:39:39.680Z,67.38
2017-12-16T11:42:10.114Z,68.03
2017-12-16T11:44:41.350Z,68.47
2017-12-16T11:47:11.310Z,68.55
2017-12-16T11:49:42.578Z,69.39
2017-12-16T11:52:12.637Z,70.05
2017-12-16T11:54:42.765Z,70.82
2017-12-16T11:57:12.733Z,68.89
2017-12-16T11:59:43.819Z,70.25
2017-12-16T12:02:13.761Z,70.29
2017-12-16T12:04:43.585Z,70.71
2017-12-16T12:07:14.006Z,71.67
2017-12-16T12:09:43.871Z,71.45
2017-12-16T12:12:14.148Z,71.66
2017-12-16T12:14:44.963Z,71.17
2017-12-16T12:17:15.605Z,71.70
2017-12-16T12:19:46.403Z,72.62
2017-12-16T12:22:18.116Z,71.76
2017-12-16T12:24:48.141Z,73.02
2017-12-16T12:27:17.742Z,72.16
2017-12-16T12:29:47.789Z,71.77
2017-12-16T12:32:18.435Z,72.11
2017-12-16T12:34:48.299Z,72.13
2017-12-16T12:37:19.239Z,73.18
2017-12-16T12:39:49.089Z,73.65
2017-12-16T12:42:18.974Z,72.60
2017-12-16T12:44:48.889Z,71.84
2017-12-16T12:47:19.115Z,73.46
2017-12-16T12:49:49.032Z,73.91
2017-12-16T12:52:19.059Z,72.71
2017-12-16T12:54:48.978Z,72.23
2017-12-16T12:57:18.925Z,70.82
2017-12-16T12:59:48.835Z,71.33
2017-12-16T13:02:18.935Z,70.11
2017-12-16T13:04:48.733Z,69.47
2017-12-16T13:07:18.576Z,70.19
2017-12-16T13:09:48.488Z,69.58
2017-12-16T13:12:22.548Z,69.63
2017-12-16T13:14:52.573Z,70.66
2017-12-16T13:17:22.551Z,70.58
2017-12-16T13:19:52.840Z,71.14
2017-12-16T13:22:22.788Z,71.31
2017-12-16T13:24:52.717Z,72.21
2017-12-16T13:27:22.632Z,71.86
2017-12-16T13:29:52.736Z,71.75
2017-12-16T13:32:22.603Z,72.03
2017-12-16T13:34:52.559Z,71.08
2017-12-16T13:37:22.670Z,70.21
2017-12-16T13:39:53.425Z,70.91
2017-12-16T13:42:23.238Z,71.33
2017-12-16T13:44:52.729Z,72.09
2017-12-16T13:47:23.036Z,72.68
2017-12-16T13:49:52.886Z,73.46
2017-12-16T13:52:23.209Z,73.76
2017-12-16T13:54:53.181Z,74.96
2017-12-16T13:57:23.014Z,74.73
2017-12-16T13:59:53.856Z,75.54
2017-12-16T14:02:24.331Z,75.37
2017-12-16T14:04:55.804Z,75.32
2017-12-16T14:07:25.730Z,75.57
2017-12-16T14:09:56.535Z,76.06
2017-12-16T14:12:26.473Z,76.38
2017-12-16T14:14:56.358Z,77.16
2017-12-16T14:17:27.165Z,77.26
2017-12-16T14:19:57.263Z,77.07
2017-12-16T14:22:27.663Z,77.60
2017-12-16T14:24:57.590Z,78.70
2017-12-16T14:27:27.803Z,79.14
2017-12-16T14:29:57.684Z,79.73
2017-12-16T14:32:27.529Z,79.96
2017-12-16T14:34:57.747Z,79.94
2017-12-16T14:37:27.698Z,80.29
2017-12-16T14:39:57.622Z,80.19
2017-12-16T14:42:29.027Z,80.52
2017-12-16T14:44:58.986Z,80.56
2017-12-16T14:47:28.877Z,80.30
2017-12-16T14:49:59.008Z,80.74
2017-12-16T14:52:31.198Z,81.58
2017-12-16T14:55:01.057Z,81.56
2017-12-16T14:57:32.466Z,82.94
2017-12-16T15:00:02.351Z,82.73
2017-12-16T15:02:32.701Z,83.65
2017-12-16T15:05:04.022Z,84.87
2017-12-16T15:07:34.137Z,85.84
2017-12-16T15:10:03.948Z,85.45
2017-12-16T15:12:33.902Z,83.46
2017-12-16T15:15:03.698Z,83.59
2017-12-16T15:17:33.490Z,83.51
2017-12-16T15:20:03.417Z,81.39
2017-12-16T15:22:33.404Z,81.45
2017-12-16T15:25:03.647Z,81.87
2017-12-16T15:27:33.561Z,81.53
2017-12-16T15:30:03.377Z,82.12
2017-12-16T15:32:33.402Z,81.98
2017-12-16T15:35:03.219Z,82.89
2017-12-16T15:37:33.077Z,82.99
2017-12-16T15:40:03.897Z,83.91
2017-12-16T15:42:33.776Z,84.00
2017-12-16T15:45:03.618Z,83.46
2017-12-16T15:47:33.439Z,83.70
2017-12-16T15:50:03.321Z,84.14
2017-12-16T15:52:33.405Z,84.87
2017-12-16T15:55:03.247Z,85.08
2017-12-16T15:57:42.258Z,85.32
2017-12-16T16:00:12.032Z,85.64
2017-12-16T16:02:41.894Z,85.81
2017-12-16T16:05:22.900Z,85.89
2017-12-16T16:07:57.680Z,86.06
2017-12-16T16:10:35.026Z,86.14
2017-12-16T16:13:05.399Z,86.36
2017-12-16T16:18:19.660Z,86.15
2017-12-16T16:20:55.084Z,85.52
2017-12-16T16:26:15.600Z,85.69
2017-12-16T16:28:47.302Z,85.96
2017-12-16T16:31:17.183Z,86.60
2017-12-16T16:33:47.320Z,87.27
2017-12-16T16:36:17.138Z,87.23
2017-12-16T16:38:47.359Z,87.72
2017-12-16T16:41:17.267Z,87.85
2017-12-16T16:43:47.144Z,87.99
2017-12-16T16:46:18.039Z,88.07
2017-12-16T16:48:48.348Z,86.96
2017-12-16T16:51:18.456Z,86.82
2017-12-16T16:53:49.115Z,86.96
2017-12-16T16:56:20.772Z,86.84
2017-12-16T16:58:53.120Z,87.44
2017-12-16T17:01:24.312Z,87.95
2017-12-16T17:03:54.499Z,88.27
2017-12-16T17:06:27.873Z,88.70
2017-12-16T17:09:14.559Z,89.09
2017-12-16T17:11:44.740Z,89.68
2017-12-16T17:14:14.856Z,89.72
2017-12-16T17:16:45.247Z,89.28
2017-12-16T17:19:15.097Z,89.12
2017-12-16T17:21:45.255Z,89.28
2017-12-16T17:24:14.928Z,90.42
2017-12-16T17:26:44.846Z,90.61
2017-12-16T17:29:15.834Z,89.16
2017-12-16T17:31:45.746Z,89.30
2017-12-16T17:34:15.655Z,90.38
2017-12-16T17:36:45.317Z,90.14
2017-12-16T17:39:15.283Z,89.44
2017-12-16T17:41:45.031Z,90.13
2017-12-16T17:44:15.011Z,90.35
2017-12-16T17:46:44.979Z,90.83
2017-12-16T17:49:15.202Z,90.83
2017-12-16T17:51:45.177Z,91.13
2017-12-16T17:54:15.066Z,91.26
2017-12-16T17:56:45.058Z,91.55
2017-12-16T17:59:15.541Z,92.01
2017-12-16T18:01:45.534Z,91.93
2017-12-16T18:04:15.497Z,92.00
2017-12-16T18:06:45.578Z,92.24
2017-12-16T18:09:16.362Z,92.33
2017-12-16T18:11:46.281Z,92.66
2017-12-16T18:14:16.159Z,93.10
2017-12-16T18:16:46.111Z,93.06
2017-12-16T18:19:15.992Z,93.91
2017-12-16T18:21:45.930Z,94.07
2017-12-16T18:24:16.057Z,94.15
2017-12-16T18:26:46.020Z,94.72
2017-12-16T18:29:16.006Z,95.25
2017-12-16T18:31:45.828Z,95.56
2017-12-16T18:34:15.667Z,95.70
2017-12-16T18:36:45.622Z,95.75
2017-12-16T18:39:15.888Z,95.62
2017-12-16T18:41:45.936Z,95.70
2017-12-16T18:44:16.223Z,95.85
2017-12-16T18:46:46.651Z,95.90
2017-12-16T18:49:16.649Z,96.13
2017-12-16T18:51:46.760Z,96.03
2017-12-16T18:54:16.724Z,96.02
2017-12-16T18:56:46.637Z,96.23
2017-12-16T18:59:17.016Z,95.76
2017-12-16T19:01:47.055Z,95.68
2017-12-16T19:04:17.067Z,95.96
2017-12-16T19:06:47.033Z,95.79
2017-12-16T19:09:16.954Z,95.54
2017-12-16T19:11:46.926Z,95.64
2017-12-16T19:14:16.901Z,95.94
2017-12-16T19:16:46.800Z,95.79
2017-12-16T19:19:16.676Z,95.76
2017-12-16T19:21:46.885Z,95.43
2017-12-16T19:24:16.440Z,95.31
2017-12-16T19:26:46.385Z,94.78
2017-12-16T19:29:16.586Z,94.73
2017-12-16T19:31:46.337Z,94.50
2017-12-16T19:34:16.352Z,94.17
2017-12-16T19:36:46.183Z,94.46
2017-12-16T19:39:16.346Z,94.54
2017-12-16T19:41:46.672Z,94.52
2017-12-16T19:44:16.555Z,94.49
2017-12-16T19:46:46.386Z,94.30
2017-12-16T19:49:16.202Z,94.59
2017-12-16T19:51:46.197Z,94.15
2017-12-16T19:54:16.042Z,93.81
2017-12-16T19:56:45.866Z,93.93
2017-12-16T19:59:15.772Z,93.95
2017-12-16T20:01:45.683Z,94.41
2017-12-16T20:04:15.498Z,94.87
2017-12-16T20:06:45.420Z,95.17
2017-12-16T20:09:14.987Z,95.60
2017-12-16T20:11:44.830Z,95.73
2017-12-16T20:14:14.709Z,95.07
2017-12-16T20:16:44.675Z,94.79
2017-12-16T20:19:14.781Z,94.58
2017-12-16T20:21:47.133Z,94.35
2017-12-16T20:24:17.020Z,94.08
2017-12-16T20:26:46.962Z,94.29
2017-12-16T20:29:17.184Z,94.54
2017-12-16T20:31:48.432Z,94.13
2017-12-16T20:34:18.646Z,93.42
2017-12-16T20:36:48.478Z,93.00
2017-12-16T20:39:18.322Z,93.03
2017-12-16T20:41:48.083Z,91.78
2017-12-16T20:44:18.022Z,91.73
2017-12-16T20:46:47.894Z,91.52
2017-12-16T20:49:17.812Z,91.32
2017-12-16T20:51:47.614Z,91.55
2017-12-16T20:54:17.556Z,91.44
2017-12-16T20:56:47.531Z,90.51
2017-12-16T20:59:18.233Z,90.74
2017-12-16T21:01:48.083Z,90.50
2017-12-16T21:04:17.901Z,89.77
2017-12-16T21:06:47.792Z,90.20
2017-12-16T21:09:17.594Z,90.05
2017-12-16T21:11:47.450Z,89.83
2017-12-16T21:14:17.366Z,89.38
2017-12-16T21:16:47.334Z,89.79
2017-12-16T21:19:17.247Z,89.44
2017-12-16T21:21:47.325Z,89.53
2017-12-16T21:24:17.394Z,89.50
2017-12-16T21:26:47.238Z,89.26
2017-12-16T21:29:17.750Z,89.29
2017-12-16T21:31:47.667Z,89.07
2017-12-16T21:34:17.605Z,89.27
2017-12-16T21:36:47.449Z,89.05
2017-12-16T21:39:17.298Z,88.77
2017-12-16T21:41:47.191Z,89.41
2017-12-16T21:44:17.894Z,89.47
2017-12-16T21:46:47.719Z,89.27
2017-12-16T21:49:17.824Z,88.52
2017-12-16T21:51:48.586Z,88.89
2017-12-16T21:54:18.927Z,88.25
2017-12-16T21:56:48.751Z,88.39
2017-12-16T21:59:18.807Z,88.13
2017-12-16T22:01:48.765Z,88.43
2017-12-16T22:04:19.101Z,88.31
2017-12-16T22:06:48.997Z,88.70
2017-12-16T22:09:18.877Z,89.21
2017-12-16T22:11:48.849Z,90.14
2017-12-16T22:14:18.704Z,90.61
2017-12-16T22:16:48.542Z,91.13
2017-12-16T22:19:18.488Z,91.65
2017-12-16T22:21:48.632Z,92.11
2017-12-16T22:24:18.551Z,92.40
2017-12-16T22:26:48.195Z,92.46
2017-12-16T22:29:18.093Z,92.92
2017-12-16T22:31:47.961Z,92.66
2017-12-16T22:34:17.808Z,93.34
2017-12-16T22:36:47.735Z,93.57
2017-12-16T22:39:17.670Z,92.91
2017-12-16T22:41:48.912Z,93.52
2017-12-16T22:44:19.839Z,93.91
2017-12-16T22:46:49.702Z,94.12
2017-12-16T22:49:20.640Z,93.10
2017-12-16T22:51:50.562Z,92.98
2017-12-16T22:54:20.653Z,93.40
2017-12-16T22:56:50.567Z,93.80
2017-12-16T22:59:20.083Z,94.08
2017-12-16T23:01:49.967Z,93.69
2017-12-16T23:04:19.544Z,92.70
2017-12-16T23:06:49.507Z,92.88
2017-12-16T23:09:19.473Z,92.79
2017-12-16T23:11:49.179Z,92.81
2017-12-16T23:14:18.750Z,92.54
2017-12-16T23:16:48.331Z,92.98
2017-12-16T23:19:19.284Z,92.95
2017-12-16T23:21:49.226Z,92.90
2017-12-16T23:24:18.848Z,93.34
2017-12-16T23:26:48.775Z,93.22
2017-12-16T23:29:18.434Z,92.47
2017-12-16T23:31:47.687Z,92.99
2017-12-16T23:34:17.234Z,92.79
2017-12-16T23:36:46.950Z,92.91
2017-12-16T23:39:16.665Z,91.65
2017-12-16T23:41:46.323Z,91.73
2017-12-16T23:44:16.219Z,91.43
2017-12-16T23:46:45.759Z,91.39
2017-12-16T23:49:15.574Z,91.38
2017-12-16T23:51:45.138Z,91.63
2017-12-16T23:54:14.679Z,91.53
2017-12-16T23:56:44.579Z,91.74
2017-12-16T23:59:14.136Z,91.64
